sensor_id;sensor_type;location;lat;lon;timestamp;pressure;altitude;pressure_sealevel;temperature;humidity
10720;BME280;5411;58.386;15.560;2023-02-04T00:00:36;101866.34;;;-1.76;80.26
10720;BME280;5411;58.386;15.560;2023-02-04T00:03:04;101871.66;;;-1.78;80.99
10720;BME280;5411;58.386;15.560;2023-02-04T00:05:33;101883.94;;;-1.78;80.38
10720;BME280;5411;58.386;15.560;2023-02-04T00:08:01;101883.84;;;-1.77;81.36
10720;BME280;5411;58.386;15.560;2023-02-04T00:10:33;101885.53;;;-1.76;81.07
10720;BME280;5411;58.386;15.560;2023-02-04T00:13:01;101897.88;;;-1.78;80.38
10720;BME280;5411;58.386;15.560;2023-02-04T00:15:30;101892.97;;;-1.84;80.95
10720;BME280;5411;58.386;15.560;2023-02-04T00:18:00;101893.16;;;-1.87;80.60
10720;BME280;5411;58.386;15.560;2023-02-04T00:20:29;101898.81;;;-1.95;80.47
10720;BME280;5411;58.386;15.560;2023-02-04T00:22:58;101904.31;;;-1.99;80.61
10720;BME280;5411;58.386;15.560;2023-02-04T00:25:42;101902.97;;;-2.06;80.90
10720;BME280;5411;58.386;15.560;2023-02-04T00:28:10;101908.44;;;-2.11;80.74
10720;BME280;5411;58.386;15.560;2023-02-04T00:30:38;101925.88;;;-2.10;80.14
10720;BME280;5411;58.386;15.560;2023-02-04T00:33:08;101919.13;;;-2.14;80.44
10720;BME280;5411;58.386;15.560;2023-02-04T00:35:36;101928.00;;;-2.17;80.98
10720;BME280;5411;58.386;15.560;2023-02-04T00:38:05;101932.38;;;-2.17;81.01
10720;BME280;5411;58.386;15.560;2023-02-04T00:40:36;101938.78;;;-2.23;80.74
10720;BME280;5411;58.386;15.560;2023-02-04T00:43:04;101947.56;;;-2.24;81.55
10720;BME280;5411;58.386;15.560;2023-02-04T00:45:33;101944.38;;;-2.29;80.94
10720;BME280;5411;58.386;15.560;2023-02-04T00:48:01;101950.06;;;-2.38;80.43
10720;BME280;5411;58.386;15.560;2023-02-04T00:50:30;101958.44;;;-2.47;80.02
10720;BME280;5411;58.386;15.560;2023-02-04T00:53:00;101962.53;;;-2.59;80.16
10720;BME280;5411;58.386;15.560;2023-02-04T00:55:30;101970.69;;;-2.65;80.29
10720;BME280;5411;58.386;15.560;2023-02-04T00:57:59;101968.53;;;-2.74;80.38
10720;BME280;5411;58.386;15.560;2023-02-04T01:00:27;101972.41;;;-2.81;80.43
10720;BME280;5411;58.386;15.560;2023-02-04T01:02:56;101980.47;;;-2.85;81.00
10720;BME280;5411;58.386;15.560;2023-02-04T01:05:25;101994.66;;;-2.90;80.83
10720;BME280;5411;58.386;15.560;2023-02-04T01:07:55;101986.25;;;-2.96;81.35
10720;BME280;5411;58.386;15.560;2023-02-04T01:10:23;101998.72;;;-3.01;81.32
10720;BME280;5411;58.386;15.560;2023-02-04T01:12:52;101986.78;;;-3.07;81.83
10720;BME280;5411;58.386;15.560;2023-02-04T01:15:20;102002.72;;;-3.11;82.14
10720;BME280;5411;58.386;15.560;2023-02-04T01:17:49;101993.31;;;-3.15;82.74
10720;BME280;5411;58.386;15.560;2023-02-04T01:20:17;102004.00;;;-3.20;82.57
10720;BME280;5411;58.386;15.560;2023-02-04T01:22:45;102028.50;;;-3.21;82.74
10720;BME280;5411;58.386;15.560;2023-02-04T01:25:15;102029.47;;;-3.24;82.88
10720;BME280;5411;58.386;15.560;2023-02-04T01:27:47;102030.47;;;-3.26;82.74
10720;BME280;5411;58.386;15.560;2023-02-04T01:30:15;102035.97;;;-3.32;83.26
10720;BME280;5411;58.386;15.560;2023-02-04T01:32:43;102048.19;;;-3.33;83.43
10720;BME280;5411;58.386;15.560;2023-02-04T01:35:12;102056.22;;;-3.36;83.97
10720;BME280;5411;58.386;15.560;2023-02-04T01:37:40;102046.88;;;-3.41;84.02
10720;BME280;5411;58.386;15.560;2023-02-04T01:40:10;102056.50;;;-3.42;84.19
10720;BME280;5411;58.386;15.560;2023-02-04T01:42:41;102056.56;;;-3.43;84.67
10720;BME280;5411;58.386;15.560;2023-02-04T01:45:10;102068.16;;;-3.49;84.81
10720;BME280;5411;58.386;15.560;2023-02-04T01:47:38;102084.84;;;-3.51;85.19
10720;BME280;5411;58.386;15.560;2023-02-04T01:50:10;102083.34;;;-3.57;85.22
10720;BME280;5411;58.386;15.560;2023-02-04T01:52:40;102084.44;;;-3.61;85.92
10720;BME280;5411;58.386;15.560;2023-02-04T01:55:13;102093.19;;;-3.62;86.40
10720;BME280;5411;58.386;15.560;2023-02-04T01:57:44;102100.31;;;-3.66;86.43
10720;BME280;5411;58.386;15.560;2023-02-04T02:00:15;102108.28;;;-3.69;86.81
10720;BME280;5411;58.386;15.560;2023-02-04T02:02:46;102118.81;;;-3.70;87.20
10720;BME280;5411;58.386;15.560;2023-02-04T02:05:18;102121.72;;;-3.76;87.71
10720;BME280;5411;58.386;15.560;2023-02-04T02:07:48;102114.84;;;-3.79;87.88
10720;BME280;5411;58.386;15.560;2023-02-04T02:10:17;102131.56;;;-3.83;87.69
10720;BME280;5411;58.386;15.560;2023-02-04T02:12:47;102130.03;;;-3.87;88.47
10720;BME280;5411;58.386;15.560;2023-02-04T02:15:16;102137.13;;;-3.90;88.64
10720;BME280;5411;58.386;15.560;2023-02-04T02:17:48;102143.41;;;-3.95;88.51
10720;BME280;5411;58.386;15.560;2023-02-04T02:20:18;102150.47;;;-3.97;88.51
10720;BME280;5411;58.386;15.560;2023-02-04T02:22:57;102152.38;;;-4.00;89.29
10720;BME280;5411;58.386;15.560;2023-02-04T02:25:29;102156.94;;;-4.05;89.38
10720;BME280;5411;58.386;15.560;2023-02-04T02:27:59;102158.03;;;-4.11;89.79
10720;BME280;5411;58.386;15.560;2023-02-04T02:30:28;102174.78;;;-4.15;89.84
10720;BME280;5411;58.386;15.560;2023-02-04T02:32:57;102177.63;;;-4.21;90.37
10720;BME280;5411;58.386;15.560;2023-02-04T02:35:26;102183.81;;;-4.23;90.72
10720;BME280;5411;58.386;15.560;2023-02-04T02:37:55;102180.41;;;-4.25;90.84
10720;BME280;5411;58.386;15.560;2023-02-04T02:40:24;102192.78;;;-4.29;91.25
10720;BME280;5411;58.386;15.560;2023-02-04T02:42:54;102187.72;;;-4.34;91.48
10720;BME280;5411;58.386;15.560;2023-02-04T02:45:24;102189.59;;;-4.37;91.06
10720;BME280;5411;58.386;15.560;2023-02-04T02:47:54;102189.00;;;-4.44;91.95
10720;BME280;5411;58.386;15.560;2023-02-04T02:50:25;102198.72;;;-4.47;92.35
10720;BME280;5411;58.386;15.560;2023-02-04T02:52:55;102201.50;;;-4.52;92.44
10720;BME280;5411;58.386;15.560;2023-02-04T02:55:24;102214.75;;;-4.56;92.94
10720;BME280;5411;58.386;15.560;2023-02-04T02:57:56;102218.34;;;-4.59;93.48
10720;BME280;5411;58.386;15.560;2023-02-04T03:00:25;102217.59;;;-4.62;93.99
10720;BME280;5411;58.386;15.560;2023-02-04T03:02:57;102220.41;;;-4.67;93.95
10720;BME280;5411;58.386;15.560;2023-02-04T03:05:29;102219.50;;;-4.66;93.72
10720;BME280;5411;58.386;15.560;2023-02-04T03:07:58;102214.44;;;-4.71;93.72
10720;BME280;5411;58.386;15.560;2023-02-04T03:10:27;102227.50;;;-4.71;93.85
10720;BME280;5411;58.386;15.560;2023-02-04T03:12:58;102226.81;;;-4.76;93.82
10720;BME280;5411;58.386;15.560;2023-02-04T03:15:27;102224.31;;;-4.79;93.80
10720;BME280;5411;58.386;15.560;2023-02-04T03:17:55;102230.59;;;-4.83;94.49
10720;BME280;5411;58.386;15.560;2023-02-04T03:20:26;102233.34;;;-4.87;94.17
10720;BME280;5411;58.386;15.560;2023-02-04T03:22:56;102238.69;;;-4.90;94.52
10720;BME280;5411;58.386;15.560;2023-02-04T03:25:25;102244.16;;;-4.96;95.02
10720;BME280;5411;58.386;15.560;2023-02-04T03:27:54;102250.31;;;-4.99;95.40
10720;BME280;5411;58.386;15.560;2023-02-04T03:30:25;102249.56;;;-5.03;95.88
10720;BME280;5411;58.386;15.560;2023-02-04T03:32:54;102256.56;;;-5.03;95.91
10720;BME280;5411;58.386;15.560;2023-02-04T03:35:26;102263.66;;;-5.07;95.56
10720;BME280;5411;58.386;15.560;2023-02-04T03:37:54;102268.03;;;-5.07;96.28
10720;BME280;5411;58.386;15.560;2023-02-04T03:40:22;102278.47;;;-5.07;95.56
10720;BME280;5411;58.386;15.560;2023-02-04T03:42:50;102282.03;;;-5.10;96.51
10720;BME280;5411;58.386;15.560;2023-02-04T03:45:19;102283.84;;;-5.12;96.51
10720;BME280;5411;58.386;15.560;2023-02-04T03:47:55;102278.91;;;-5.19;97.01
10720;BME280;5411;58.386;15.560;2023-02-04T03:50:28;102285.69;;;-5.15;96.44
10720;BME280;5411;58.386;15.560;2023-02-04T03:52:56;102292.00;;;-5.21;96.95
10720;BME280;5411;58.386;15.560;2023-02-04T03:55:25;102312.88;;;-5.21;97.30
10720;BME280;5411;58.386;15.560;2023-02-04T03:57:53;102307.75;;;-5.24;96.75
10720;BME280;5411;58.386;15.560;2023-02-04T04:00:24;102307.84;;;-5.27;97.49
10720;BME280;5411;58.386;15.560;2023-02-04T04:02:52;102305.28;;;-5.28;97.31
10720;BME280;5411;58.386;15.560;2023-02-04T04:05:23;102323.59;;;-5.30;97.04
10720;BME280;5411;58.386;15.560;2023-02-04T04:07:51;102318.50;;;-5.33;97.36
10720;BME280;5411;58.386;15.560;2023-02-04T04:10:19;102315.91;;;-5.33;97.02
10720;BME280;5411;58.386;15.560;2023-02-04T04:12:48;102325.56;;;-5.36;97.36
10720;BME280;5411;58.386;15.560;2023-02-04T04:15:19;102329.94;;;-5.37;97.26
10720;BME280;5411;58.386;15.560;2023-02-04T04:17:50;102324.00;;;-5.42;97.29
10720;BME280;5411;58.386;15.560;2023-02-04T04:20:18;102337.09;;;-5.44;96.76
10720;BME280;5411;58.386;15.560;2023-02-04T04:22:55;102332.06;;;-5.48;97.55
10720;BME280;5411;58.386;15.560;2023-02-04T04:25:23;102335.63;;;-5.51;97.04
10720;BME280;5411;58.386;15.560;2023-02-04T04:27:52;102346.94;;;-5.52;97.35
10720;BME280;5411;58.386;15.560;2023-02-04T04:30:20;102346.19;;;-5.55;97.71
10720;BME280;5411;58.386;15.560;2023-02-04T04:32:48;102355.03;;;-5.59;97.19
10720;BME280;5411;58.386;15.560;2023-02-04T04:35:17;102348.97;;;-5.60;97.35
10720;BME280;5411;58.386;15.560;2023-02-04T04:37:45;102348.19;;;-5.63;97.57
10720;BME280;5411;58.386;15.560;2023-02-04T04:40:15;102356.94;;;-5.64;98.00
10720;BME280;5411;58.386;15.560;2023-02-04T04:42:43;102358.81;;;-5.69;97.38
10720;BME280;5411;58.386;15.560;2023-02-04T04:45:11;102373.66;;;-5.71;97.84
10720;BME280;5411;58.386;15.560;2023-02-04T04:47:40;102379.75;;;-5.72;97.66
10720;BME280;5411;58.386;15.560;2023-02-04T04:50:09;102371.25;;;-5.78;97.98
10720;BME280;5411;58.386;15.560;2023-02-04T04:52:38;102375.56;;;-5.77;98.24
10720;BME280;5411;58.386;15.560;2023-02-04T04:55:07;102382.63;;;-5.80;97.95
10720;BME280;5411;58.386;15.560;2023-02-04T04:57:37;102387.91;;;-5.83;97.84
10720;BME280;5411;58.386;15.560;2023-02-04T05:00:07;102390.56;;;-5.85;98.53
10720;BME280;5411;58.386;15.560;2023-02-04T05:02:36;102391.53;;;-5.87;98.55
10720;BME280;5411;58.386;15.560;2023-02-04T05:05:04;102394.22;;;-5.89;98.41
10720;BME280;5411;58.386;15.560;2023-02-04T05:07:33;102413.34;;;-5.90;98.64
10720;BME280;5411;58.386;15.560;2023-02-04T05:10:01;102411.59;;;-5.89;98.77
10720;BME280;5411;58.386;15.560;2023-02-04T05:12:30;102419.47;;;-5.91;98.88
10720;BME280;5411;58.386;15.560;2023-02-04T05:14:59;102419.50;;;-5.92;98.74
10720;BME280;5411;58.386;15.560;2023-02-04T05:17:28;102432.56;;;-5.94;98.85
10720;BME280;5411;58.386;15.560;2023-02-04T05:19:56;102431.84;;;-5.99;98.61
10720;BME280;5411;58.386;15.560;2023-02-04T05:22:26;102441.25;;;-5.93;98.80
10720;BME280;5411;58.386;15.560;2023-02-04T05:24:55;102451.72;;;-5.95;99.09
10720;BME280;5411;58.386;15.560;2023-02-04T05:27:23;102450.00;;;-5.96;98.95
10720;BME280;5411;58.386;15.560;2023-02-04T05:29:51;102446.59;;;-5.98;98.91
10720;BME280;5411;58.386;15.560;2023-02-04T05:32:22;102443.97;;;-5.98;99.08
10720;BME280;5411;58.386;15.560;2023-02-04T05:34:51;102453.47;;;-5.95;98.45
10720;BME280;5411;58.386;15.560;2023-02-04T05:37:20;102446.53;;;-5.96;98.30
10720;BME280;5411;58.386;15.560;2023-02-04T05:39:48;102462.16;;;-5.96;98.18
10720;BME280;5411;58.386;15.560;2023-02-04T05:42:16;102459.59;;;-5.98;98.20
10720;BME280;5411;58.386;15.560;2023-02-04T05:44:44;102459.53;;;-5.95;97.88
10720;BME280;5411;58.386;15.560;2023-02-04T05:47:13;102466.50;;;-5.95;97.91
10720;BME280;5411;58.386;15.560;2023-02-04T05:49:42;102462.16;;;-5.96;97.93
10720;BME280;5411;58.386;15.560;2023-02-04T05:52:12;102456.09;;;-5.97;97.41
10720;BME280;5411;58.386;15.560;2023-02-04T05:54:40;102449.16;;;-5.96;97.78
10720;BME280;5411;58.386;15.560;2023-02-04T05:57:09;102457.84;;;-5.97;97.48
10720;BME280;5411;58.386;15.560;2023-02-04T05:59:37;102447.56;;;-6.00;97.39
10720;BME280;5411;58.386;15.560;2023-02-04T06:02:05;102465.72;;;-5.99;97.17
10720;BME280;5411;58.386;15.560;2023-02-04T06:04:34;102470.91;;;-5.99;97.25
10720;BME280;5411;58.386;15.560;2023-02-04T06:07:03;102466.53;;;-5.97;97.40
10720;BME280;5411;58.386;15.560;2023-02-04T06:09:31;102471.78;;;-5.98;96.93
10720;BME280;5411;58.386;15.560;2023-02-04T06:12:00;102466.63;;;-6.00;96.90
10720;BME280;5411;58.386;15.560;2023-02-04T06:14:28;102467.38;;;-5.96;97.35
10720;BME280;5411;58.386;15.560;2023-02-04T06:16:56;102486.47;;;-5.96;96.98
10720;BME280;5411;58.386;15.560;2023-02-04T06:19:25;102489.06;;;-5.96;97.40
10720;BME280;5411;58.386;15.560;2023-02-04T06:21:53;102483.91;;;-5.97;97.29
10720;BME280;5411;58.386;15.560;2023-02-04T06:24:23;102493.53;;;-5.99;97.29
10720;BME280;5411;58.386;15.560;2023-02-04T06:26:51;102495.22;;;-5.98;97.54
10720;BME280;5411;58.386;15.560;2023-02-04T06:29:19;102494.38;;;-5.99;97.81
10720;BME280;5411;58.386;15.560;2023-02-04T06:31:48;102495.28;;;-6.00;97.43
10720;BME280;5411;58.386;15.560;2023-02-04T06:34:17;102497.91;;;-6.00;97.71
10720;BME280;5411;58.386;15.560;2023-02-04T06:36:45;102506.63;;;-6.01;97.53
10720;BME280;5411;58.386;15.560;2023-02-04T06:39:13;102510.13;;;-6.02;97.78
10720;BME280;5411;58.386;15.560;2023-02-04T06:41:43;102517.97;;;-6.03;97.55
10720;BME280;5411;58.386;15.560;2023-02-04T06:44:11;102514.47;;;-6.02;97.00
10720;BME280;5411;58.386;15.560;2023-02-04T06:46:39;102526.56;;;-6.00;97.20
10720;BME280;5411;58.386;15.560;2023-02-04T06:49:08;102529.25;;;-6.03;97.32
10720;BME280;5411;58.386;15.560;2023-02-04T06:51:37;102530.94;;;-6.02;97.04
10720;BME280;5411;58.386;15.560;2023-02-04T06:54:05;102538.72;;;-6.00;97.29
10720;BME280;5411;58.386;15.560;2023-02-04T06:56:35;102543.94;;;-6.00;97.07
10720;BME280;5411;58.386;15.560;2023-02-04T06:59:05;102550.09;;;-6.03;96.33
10720;BME280;5411;58.386;15.560;2023-02-04T07:01:33;102558.75;;;-6.02;96.53
10720;BME280;5411;58.386;15.560;2023-02-04T07:04:01;102560.53;;;-6.04;96.74
10720;BME280;5411;58.386;15.560;2023-02-04T07:06:29;102562.25;;;-6.03;96.79
10720;BME280;5411;58.386;15.560;2023-02-04T07:08:58;102557.94;;;-6.04;96.55
10720;BME280;5411;58.386;15.560;2023-02-04T07:11:26;102564.03;;;-6.05;96.77
10720;BME280;5411;58.386;15.560;2023-02-04T07:13:54;102570.97;;;-6.04;96.78
10720;BME280;5411;58.386;15.560;2023-02-04T07:16:26;102576.16;;;-6.04;96.44
10720;BME280;5411;58.386;15.560;2023-02-04T07:18:55;102575.31;;;-6.05;96.22
10720;BME280;5411;58.386;15.560;2023-02-04T07:21:23;102584.06;;;-6.07;96.23
10720;BME280;5411;58.386;15.560;2023-02-04T07:23:52;102590.13;;;-6.07;96.80
10720;BME280;5411;58.386;15.560;2023-02-04T07:26:21;102589.22;;;-6.06;96.40
10720;BME280;5411;58.386;15.560;2023-02-04T07:28:49;102596.97;;;-6.03;96.57
10720;BME280;5411;58.386;15.560;2023-02-04T07:31:18;102596.97;;;-6.03;96.63
10720;BME280;5411;58.386;15.560;2023-02-04T07:33:47;102609.00;;;-5.99;96.13
10720;BME280;5411;58.386;15.560;2023-02-04T07:36:18;102601.09;;;-5.96;96.27
10720;BME280;5411;58.386;15.560;2023-02-04T07:38:46;102608.88;;;-5.94;96.26
10720;BME280;5411;58.386;15.560;2023-02-04T07:41:15;102604.56;;;-5.95;96.51
10720;BME280;5411;58.386;15.560;2023-02-04T07:43:43;102610.47;;;-5.89;96.46
10720;BME280;5411;58.386;15.560;2023-02-04T07:46:11;102612.94;;;-5.86;96.33
10720;BME280;5411;58.386;15.560;2023-02-04T07:48:40;102612.81;;;-5.81;96.22
10720;BME280;5411;58.386;15.560;2023-02-04T07:51:14;102619.63;;;-5.76;95.70
10720;BME280;5411;58.386;15.560;2023-02-04T07:53:44;102618.63;;;-5.71;96.01
10720;BME280;5411;58.386;15.560;2023-02-04T07:56:12;102622.88;;;-5.67;95.84
10720;BME280;5411;58.386;15.560;2023-02-04T07:58:40;102626.22;;;-5.62;95.32
10720;BME280;5411;58.386;15.560;2023-02-04T08:01:08;102628.53;;;-5.53;95.38
10720;BME280;5411;58.386;15.560;2023-02-04T08:03:37;102635.34;;;-5.48;95.18
10720;BME280;5411;58.386;15.560;2023-02-04T08:06:07;102630.88;;;-5.44;94.90
10720;BME280;5411;58.386;15.560;2023-02-04T08:08:37;102635.94;;;-5.38;94.53
10720;BME280;5411;58.386;15.560;2023-02-04T08:11:05;102638.34;;;-5.32;94.52
10720;BME280;5411;58.386;15.560;2023-02-04T08:13:33;102635.56;;;-5.26;94.44
10720;BME280;5411;58.386;15.560;2023-02-04T08:16:02;102633.69;;;-5.21;93.90
10720;BME280;5411;58.386;15.560;2023-02-04T08:18:30;102630.97;;;-5.18;94.00
10720;BME280;5411;58.386;15.560;2023-02-04T08:20:58;102643.81;;;-5.10;93.27
10720;BME280;5411;58.386;15.560;2023-02-04T08:23:29;102645.28;;;-5.02;92.88
10720;BME280;5411;58.386;15.560;2023-02-04T08:25:59;102639.88;;;-4.95;93.02
10720;BME280;5411;58.386;15.560;2023-02-04T08:28:27;102654.47;;;-4.90;92.87
10720;BME280;5411;58.386;15.560;2023-02-04T08:30:55;102654.44;;;-4.88;92.25
10720;BME280;5411;58.386;15.560;2023-02-04T08:33:23;102658.53;;;-4.80;92.21
10720;BME280;5411;58.386;15.560;2023-02-04T08:35:52;102659.31;;;-4.78;90.98
10720;BME280;5411;58.386;15.560;2023-02-04T08:38:20;102663.50;;;-4.72;91.23
10720;BME280;5411;58.386;15.560;2023-02-04T08:40:48;102669.38;;;-4.66;91.25
10720;BME280;5411;58.386;15.560;2023-02-04T08:43:18;102678.03;;;-4.63;90.58
10720;BME280;5411;58.386;15.560;2023-02-04T08:45:46;102675.22;;;-4.57;90.03
10720;BME280;5411;58.386;15.560;2023-02-04T08:48:16;102688.94;;;-4.51;89.77
10720;BME280;5411;58.386;15.560;2023-02-04T08:50:44;102685.28;;;-4.45;90.18
10720;BME280;5411;58.386;15.560;2023-02-04T08:53:12;102696.38;;;-4.39;89.52
10720;BME280;5411;58.386;15.560;2023-02-04T08:55:40;102696.06;;;-4.28;88.93
10720;BME280;5411;58.386;15.560;2023-02-04T08:58:09;102701.00;;;-4.20;88.72
10720;BME280;5411;58.386;15.560;2023-02-04T09:00:39;102707.81;;;-4.15;88.48
10720;BME280;5411;58.386;15.560;2023-02-04T09:03:07;102717.38;;;-4.14;87.92
10720;BME280;5411;58.386;15.560;2023-02-04T09:05:35;102718.91;;;-4.08;88.16
10720;BME280;5411;58.386;15.560;2023-02-04T09:08:03;102722.41;;;-4.09;88.11
10720;BME280;5411;58.386;15.560;2023-02-04T09:10:32;102735.47;;;-4.09;88.36
10720;BME280;5411;58.386;15.560;2023-02-04T09:13:00;102731.19;;;-4.12;87.58
10720;BME280;5411;58.386;15.560;2023-02-04T09:15:28;102738.09;;;-4.09;86.90
10720;BME280;5411;58.386;15.560;2023-02-04T09:17:58;102730.44;;;-4.14;87.62
10720;BME280;5411;58.386;15.560;2023-02-04T09:20:37;102738.81;;;-4.04;87.17
10720;BME280;5411;58.386;15.560;2023-02-04T09:23:05;102737.00;;;-4.02;86.38
10720;BME280;5411;58.386;15.560;2023-02-04T09:25:34;102735.94;;;-3.97;86.96
10720;BME280;5411;58.386;15.560;2023-02-04T09:28:03;102740.25;;;-3.96;86.45
10720;BME280;5411;58.386;15.560;2023-02-04T09:30:31;102744.53;;;-3.93;86.01
10720;BME280;5411;58.386;15.560;2023-02-04T09:33:02;102743.59;;;-3.90;86.23
10720;BME280;5411;58.386;15.560;2023-02-04T09:35:30;102736.41;;;-3.85;86.88
10720;BME280;5411;58.386;15.560;2023-02-04T09:37:58;102735.47;;;-3.83;86.02
10720;BME280;5411;58.386;15.560;2023-02-04T09:40:30;102747.63;;;-3.82;86.23
10720;BME280;5411;58.386;15.560;2023-02-04T09:43:02;102742.28;;;-3.77;85.93
10720;BME280;5411;58.386;15.560;2023-02-04T09:45:33;102749.13;;;-3.73;85.87
10720;BME280;5411;58.386;15.560;2023-02-04T09:48:05;102758.63;;;-3.72;85.43
10720;BME280;5411;58.386;15.560;2023-02-04T09:50:36;102754.03;;;-3.64;85.12
10720;BME280;5411;58.386;15.560;2023-02-04T09:53:05;102758.16;;;-3.59;85.66
10720;BME280;5411;58.386;15.560;2023-02-04T09:55:37;102763.19;;;-3.52;85.47
10720;BME280;5411;58.386;15.560;2023-02-04T09:58:11;102772.38;;;-3.41;85.03
10720;BME280;5411;58.386;15.560;2023-02-04T10:00:42;102778.19;;;-3.33;83.70
10720;BME280;5411;58.386;15.560;2023-02-04T10:03:15;102772.72;;;-3.25;84.98
10720;BME280;5411;58.386;15.560;2023-02-04T10:05:45;102773.56;;;-3.25;82.55
10720;BME280;5411;58.386;15.560;2023-02-04T10:08:15;102779.75;;;-3.27;82.23
10720;BME280;5411;58.386;15.560;2023-02-04T10:10:45;102784.88;;;-3.24;82.31
10720;BME280;5411;58.386;15.560;2023-02-04T10:13:16;102785.69;;;-3.22;82.97
10720;BME280;5411;58.386;15.560;2023-02-04T10:15:46;102798.66;;;-3.19;81.79
10720;BME280;5411;58.386;15.560;2023-02-04T10:18:20;102799.28;;;-3.12;82.01
10720;BME280;5411;58.386;15.560;2023-02-04T10:20:52;102806.81;;;-3.03;82.17
10720;BME280;5411;58.386;15.560;2023-02-04T10:23:22;102796.19;;;-2.99;81.80
10720;BME280;5411;58.386;15.560;2023-02-04T10:25:50;102802.75;;;-2.87;81.82
10720;BME280;5411;58.386;15.560;2023-02-04T10:28:19;102800.13;;;-2.87;80.63
10720;BME280;5411;58.386;15.560;2023-02-04T10:30:47;102803.66;;;-2.88;80.59
10720;BME280;5411;58.386;15.560;2023-02-04T10:33:22;102800.88;;;-2.83;81.31
10720;BME280;5411;58.386;15.560;2023-02-04T10:35:53;102799.81;;;-2.79;80.34
10720;BME280;5411;58.386;15.560;2023-02-04T10:38:22;102798.69;;;-2.72;80.59
10720;BME280;5411;58.386;15.560;2023-02-04T10:40:59;102807.38;;;-2.70;79.75
10720;BME280;5411;58.386;15.560;2023-02-04T10:43:28;102813.34;;;-2.67;80.17
10720;BME280;5411;58.386;15.560;2023-02-04T10:46:00;102813.00;;;-2.58;80.17
10720;BME280;5411;58.386;15.560;2023-02-04T10:48:38;102807.47;;;-2.50;79.62
10720;BME280;5411;58.386;15.560;2023-02-04T10:51:08;102814.28;;;-2.46;79.79
10720;BME280;5411;58.386;15.560;2023-02-04T10:53:39;102815.09;;;-2.44;78.28
10720;BME280;5411;58.386;15.560;2023-02-04T10:56:28;102817.59;;;-2.41;78.33
10720;BME280;5411;58.386;15.560;2023-02-04T10:58:57;102817.41;;;-2.36;77.67
10720;BME280;5411;58.386;15.560;2023-02-04T11:01:27;102822.84;;;-2.41;77.77
10720;BME280;5411;58.386;15.560;2023-02-04T11:03:58;102821.09;;;-2.40;77.62
10720;BME280;5411;58.386;15.560;2023-02-04T11:06:27;102817.59;;;-2.41;77.40
10720;BME280;5411;58.386;15.560;2023-02-04T11:08:58;102819.31;;;-2.40;77.30
10720;BME280;5411;58.386;15.560;2023-02-04T11:11:26;102823.50;;;-2.36;76.47
10720;BME280;5411;58.386;15.560;2023-02-04T11:14:00;102830.47;;;-2.35;77.17
10720;BME280;5411;58.386;15.560;2023-02-04T11:16:31;102833.78;;;-2.30;78.69
10720;BME280;5411;58.386;15.560;2023-02-04T11:19:04;102837.19;;;-2.28;78.13
10720;BME280;5411;58.386;15.560;2023-02-04T11:21:41;102837.34;;;-2.32;78.25
10720;BME280;5411;58.386;15.560;2023-02-04T11:24:23;102842.66;;;-2.34;78.66
10720;BME280;5411;58.386;15.560;2023-02-04T11:27:03;102842.06;;;-2.40;79.01
10720;BME280;5411;58.386;15.560;2023-02-04T11:29:33;102846.34;;;-2.39;79.11
10720;BME280;5411;58.386;15.560;2023-02-04T11:32:05;102856.06;;;-2.41;79.21
10720;BME280;5411;58.386;15.560;2023-02-04T11:34:48;102844.38;;;-2.33;79.51
10720;BME280;5411;58.386;15.560;2023-02-04T11:37:32;102846.78;;;-2.27;79.75
10720;BME280;5411;58.386;15.560;2023-02-04T11:40:20;102840.38;;;-2.20;77.90
10720;BME280;5411;58.386;15.560;2023-02-04T11:42:55;102835.81;;;-2.14;77.10
10720;BME280;5411;58.386;15.560;2023-02-04T11:45:28;102839.94;;;-2.09;77.64
10720;BME280;5411;58.386;15.560;2023-02-04T11:48:00;102838.00;;;-2.04;77.16
10720;BME280;5411;58.386;15.560;2023-02-04T11:50:32;102836.78;;;-1.95;76.14
10720;BME280;5411;58.386;15.560;2023-02-04T11:53:01;102845.31;;;-1.90;76.39
10720;BME280;5411;58.386;15.560;2023-02-04T11:55:31;102839.03;;;-1.86;75.85
10720;BME280;5411;58.386;15.560;2023-02-04T11:58:02;102843.13;;;-1.79;75.33
10720;BME280;5411;58.386;15.560;2023-02-04T12:00:32;102845.31;;;-1.68;75.63
10720;BME280;5411;58.386;15.560;2023-02-04T12:03:03;102847.06;;;-1.69;77.32
10720;BME280;5411;58.386;15.560;2023-02-04T12:05:40;102848.25;;;-1.76;77.54
10720;BME280;5411;58.386;15.560;2023-02-04T12:08:10;102845.81;;;-1.81;77.32
10720;BME280;5411;58.386;15.560;2023-02-04T12:10:47;102848.59;;;-1.85;77.72
10720;BME280;5411;58.386;15.560;2023-02-04T12:13:18;102847.91;;;-1.89;77.99
10720;BME280;5411;58.386;15.560;2023-02-04T12:15:56;102834.88;;;-1.92;78.70
10720;BME280;5411;58.386;15.560;2023-02-04T12:18:26;102837.41;;;-1.89;78.69
10720;BME280;5411;58.386;15.560;2023-02-04T12:20:57;102839.13;;;-1.88;78.45
10720;BME280;5411;58.386;15.560;2023-02-04T12:23:27;102838.25;;;-1.88;79.34
10720;BME280;5411;58.386;15.560;2023-02-04T12:25:57;102838.06;;;-1.84;78.99
10720;BME280;5411;58.386;15.560;2023-02-04T12:28:26;102838.91;;;-1.83;78.25
10720;BME280;5411;58.386;15.560;2023-02-04T12:30:55;102838.00;;;-1.82;78.49
10720;BME280;5411;58.386;15.560;2023-02-04T12:33:24;102840.38;;;-1.76;78.42
10720;BME280;5411;58.386;15.560;2023-02-04T12:35:56;102840.22;;;-1.73;78.49
10720;BME280;5411;58.386;15.560;2023-02-04T12:38:24;102835.94;;;-1.74;77.57
10720;BME280;5411;58.386;15.560;2023-02-04T12:40:55;102829.75;;;-1.73;77.61
10720;BME280;5411;58.386;15.560;2023-02-04T12:43:26;102828.91;;;-1.73;77.68
10720;BME280;5411;58.386;15.560;2023-02-04T12:45:54;102841.81;;;-1.69;77.60
10720;BME280;5411;58.386;15.560;2023-02-04T12:48:23;102841.72;;;-1.66;78.16
10720;BME280;5411;58.386;15.560;2023-02-04T12:50:51;102834.63;;;-1.64;77.77
10720;BME280;5411;58.386;15.560;2023-02-04T12:53:21;102845.78;;;-1.59;77.88
10720;BME280;5411;58.386;15.560;2023-02-04T12:55:49;102837.91;;;-1.59;77.27
10720;BME280;5411;58.386;15.560;2023-02-04T12:58:18;102843.88;;;-1.55;77.98
10720;BME280;5411;58.386;15.560;2023-02-04T13:00:48;102843.44;;;-1.45;77.83
10720;BME280;5411;58.386;15.560;2023-02-04T13:03:17;102852.66;;;-1.34;77.52